Time;durP1;ratioP1;P1;durP2;ratioP2;P2;SDS_P1;SDS_P2;PMS_P1;PMS_P2;Temp;Humidity;BMP_temperature;BMP_pressure;BME280_temperature;BME280_humidity;BME280_pressure;Samples;Min_cycle;Max_cycle;Signal;HPM_P1;HPM_P2
2021/11/16 00:02:09;;;;;;;45.10;19.40;;;7.70;90.50;;;;;;5086888;28;20210;-75
2021/11/16 00:04:35;;;;;;;45.07;21.13;;;7.60;90.40;;;;;;5082595;28;21114;-77
2021/11/16 00:07:01;;;;;;;50.27;19.87;;;7.60;90.50;;;;;;5087910;28;20468;-77
2021/11/16 00:09:28;;;;;;;50.03;21.07;;;7.70;90.20;;;;;;5083166;28;20480;-76
2021/11/16 00:11:53;;;;;;;46.90;19.20;;;7.60;90.30;;;;;;5092326;28;20440;-76
2021/11/16 00:14:19;;;;;;;53.30;21.20;;;7.50;90.50;;;;;;5095306;28;20433;-76
2021/11/16 00:16:46;;;;;;;49.43;19.97;;;7.50;90.80;;;;;;5095524;28;20501;-76
2021/11/16 00:19:14;;;;;;;55.17;21.90;;;7.60;90.90;;;;;;5090871;28;20522;-77
2021/11/16 00:21:43;;;;;;;56.23;21.07;;;7.60;90.90;;;;;;5093424;28;20476;-76
2021/11/16 00:24:13;;;;;;;48.00;20.33;;;7.70;90.80;;;;;;5093190;28;20432;-76
2021/11/16 00:26:39;;;;;;;49.60;19.93;;;7.70;90.50;;;;;;5092852;28;20469;-76
2021/11/16 00:29:05;;;;;;;49.10;20.97;;;7.80;90.40;;;;;;5092299;28;20426;-75
2021/11/16 00:31:31;;;;;;;46.10;18.70;;;7.80;90.00;;;;;;5096292;28;20954;-76
2021/11/16 00:33:58;;;;;;;44.13;19.00;;;7.80;89.70;;;;;;5089088;28;20198;-75
2021/11/16 00:36:24;;;;;;;43.53;19.60;;;7.70;89.70;;;;;;5090887;28;20793;-76
2021/11/16 00:38:50;;;;;;;51.77;20.03;;;7.70;90.10;;;;;;5101147;28;20429;-76
2021/11/16 00:41:16;;;;;;;46.20;19.70;;;7.70;90.10;;;;;;5104163;28;20207;-75
2021/11/16 00:43:42;;;;;;;50.03;19.37;;;7.70;90.00;;;;;;5099094;28;20226;-75
2021/11/16 00:46:08;;;;;;;48.23;19.97;;;7.70;89.70;;;;;;5092705;28;20199;-75
2021/11/16 00:48:34;;;;;;;46.47;19.90;;;7.70;89.60;;;;;;5089525;28;20420;-76
2021/11/16 00:51:03;;;;;;;42.77;17.50;;;7.70;89.50;;;;;;5089147;28;20424;-74
2021/11/16 00:53:32;;;;;;;48.57;19.60;;;7.80;89.60;;;;;;5078760;28;20421;-75
2021/11/16 00:55:59;;;;;;;44.63;19.13;;;7.80;89.50;;;;;;5089654;28;20429;-76
2021/11/16 00:58:25;;;;;;;57.43;24.17;;;7.80;89.50;;;;;;5092693;28;20528;-76
2021/11/16 01:00:51;;;;;;;49.40;20.53;;;7.70;89.50;;;;;;5092388;28;20895;-76
2021/11/16 01:03:18;;;;;;;59.70;22.70;;;7.60;90.00;;;;;;5092429;28;20515;-75
2021/11/16 01:05:45;;;;;;;49.00;20.13;;;7.60;90.30;;;;;;5089514;28;20191;-75
2021/11/16 01:08:12;;;;;;;53.07;21.90;;;7.60;90.40;;;;;;5094339;28;20429;-75
2021/11/16 01:10:40;;;;;;;54.37;20.97;;;7.60;90.40;;;;;;5093686;28;20443;-78
2021/11/16 01:13:06;;;;;;;47.17;19.67;;;7.60;90.20;;;;;;5090616;28;20438;-76
2021/11/16 01:15:34;;;;;;;58.33;22.07;;;7.60;90.30;;;;;;5094137;28;20866;-76
2021/11/16 01:18:01;;;;;;;59.53;20.90;;;7.60;90.40;;;;;;5096182;28;20501;-78
2021/11/16 01:20:27;;;;;;;46.73;20.10;;;7.50;90.50;;;;;;5102700;28;20425;-76
2021/11/16 01:22:56;;;;;;;56.93;21.77;;;7.50;90.90;;;;;;5099374;28;20931;-76
2021/11/16 01:25:23;;;;;;;44.53;20.83;;;7.50;90.70;;;;;;5091208;28;20231;-76
2021/11/16 01:27:50;;;;;;;55.30;20.23;;;7.50;90.70;;;;;;5092043;28;20530;-76
2021/11/16 01:30:20;;;;;;;50.30;19.73;;;7.50;90.50;;;;;;5093502;28;20420;-77
2021/11/16 01:33:07;;;;;;;49.30;19.73;;;7.40;90.50;;;;;;5091371;28;20914;-77
2021/11/16 01:35:35;;;;;;;47.80;20.90;;;7.40;90.60;;;;;;5091095;28;20421;-75
2021/11/16 01:38:02;;;;;;;42.07;17.60;;;7.40;90.60;;;;;;5091703;28;20966;-77
2021/11/16 01:40:28;;;;;;;54.30;20.40;;;7.40;90.60;;;;;;5091517;28;20437;-75
2021/11/16 01:42:54;;;;;;;56.03;20.20;;;7.30;90.50;;;;;;5090072;28;20434;-76
2021/11/16 01:45:21;;;;;;;52.20;20.57;;;7.30;90.70;;;;;;5089446;28;20194;-75
2021/11/16 01:47:48;;;;;;;53.33;19.47;;;7.30;91.00;;;;;;5091906;28;20464;-77
2021/11/16 01:50:17;;;;;;;43.10;19.20;;;7.30;91.00;;;;;;5091784;28;20449;-75
2021/11/16 01:52:43;;;;;;;43.03;20.03;;;7.30;91.00;;;;;;5097322;28;20425;-77
2021/11/16 01:55:10;;;;;;;41.30;18.40;;;7.40;91.00;;;;;;5096807;28;20451;-75
2021/11/16 01:57:36;;;;;;;42.10;17.70;;;7.30;91.00;;;;;;5097770;28;20444;-77
2021/11/16 02:00:09;;;;;;;43.47;18.10;;;7.30;91.00;;;;;;5098035;28;20425;-79
2021/11/16 02:02:35;;;;;;;38.07;16.20;;;7.30;91.00;;;;;;5096070;28;21267;-77
2021/11/16 02:05:01;;;;;;;36.53;17.07;;;7.30;90.60;;;;;;5101779;28;20444;-76
2021/11/16 02:07:27;;;;;;;42.43;17.67;;;7.40;90.70;;;;;;5091707;28;20557;-76
2021/11/16 02:09:52;;;;;;;36.73;16.63;;;7.40;90.50;;;;;;5094093;28;20181;-76
2021/11/16 02:12:18;;;;;;;41.93;16.70;;;7.30;90.60;;;;;;5092576;28;20189;-76
2021/11/16 02:14:44;;;;;;;40.13;17.60;;;7.30;90.80;;;;;;5088114;28;20207;-76
2021/11/16 02:17:10;;;;;;;41.67;18.30;;;7.40;90.60;;;;;;5093913;28;20896;-78
2021/11/16 02:19:36;;;;;;;51.00;18.40;;;7.40;90.30;;;;;;5094569;28;20892;-78
2021/11/16 02:22:03;;;;;;;45.80;18.10;;;7.30;90.30;;;;;;5097264;28;20262;-76
2021/11/16 02:24:29;;;;;;;44.07;18.03;;;7.30;90.50;;;;;;5089359;28;20425;-77
2021/11/16 02:26:54;;;;;;;40.37;17.77;;;7.30;90.40;;;;;;5091444;28;20475;-77
2021/11/16 02:29:20;;;;;;;41.40;17.20;;;7.30;90.50;;;;;;5091629;28;20182;-77
2021/11/16 02:31:51;;;;;;;40.53;17.30;;;7.30;90.50;;;;;;5091072;28;20736;-75
2021/11/16 02:34:17;;;;;;;42.60;18.10;;;7.30;90.50;;;;;;5088628;28;20430;-76
2021/11/16 02:36:43;;;;;;;42.33;16.83;;;7.30;90.50;;;;;;5090175;28;20456;-77
2021/11/16 02:39:09;;;;;;;43.60;17.80;;;7.30;90.70;;;;;;5089574;28;20320;-76
2021/11/16 02:41:36;;;;;;;40.57;16.70;;;7.30;90.50;;;;;;5087386;28;20213;-78
2021/11/16 02:44:06;;;;;;;43.27;19.40;;;7.20;90.80;;;;;;5088858;28;20866;-79
2021/11/16 02:46:33;;;;;;;46.97;19.03;;;7.30;90.80;;;;;;5081520;28;20472;-76
2021/11/16 02:49:00;;;;;;;41.03;19.10;;;7.20;90.90;;;;;;5089287;28;20422;-78
2021/11/16 02:51:25;;;;;;;47.77;19.00;;;7.30;91.10;;;;;;5089171;28;20417;-76
2021/11/16 02:53:51;;;;;;;49.47;21.53;;;7.40;91.00;;;;;;5086971;28;20432;-75
2021/11/16 02:56:17;;;;;;;48.27;19.57;;;7.30;90.70;;;;;;5087746;28;20421;-76
2021/11/16 02:58:44;;;;;;;49.53;20.27;;;7.30;91.00;;;;;;5083443;28;20179;-77
2021/11/16 03:01:17;;;;;;;44.50;19.37;;;7.20;91.10;;;;;;5089703;28;20423;-77
2021/11/16 03:03:43;;;;;;;51.77;20.73;;;7.30;91.10;;;;;;5089382;28;20409;-76
2021/11/16 03:06:11;;;;;;;44.23;18.33;;;7.20;91.00;;;;;;5088874;28;20486;-77
2021/11/16 03:08:36;;;;;;;41.10;18.40;;;7.10;91.20;;;;;;5088302;28;20428;-77
2021/11/16 03:11:07;;;;;;;52.63;20.90;;;7.10;91.40;;;;;;5089204;28;20421;-77
2021/11/16 03:13:37;;;;;;;45.70;18.83;;;7.10;91.20;;;;;;5076320;28;20180;-76
2021/11/16 03:16:15;;;;;;;51.80;19.30;;;7.10;91.40;;;;;;5089095;28;20432;-76
2021/11/16 03:18:51;;;;;;;52.97;19.70;;;7.10;91.20;;;;;;5080867;28;20424;-76
2021/11/16 03:21:18;;;;;;;46.43;20.43;;;7.00;91.40;;;;;;5087486;28;20471;-78
2021/11/16 03:23:45;;;;;;;53.17;20.33;;;7.00;91.70;;;;;;5089095;28;20433;-77
2021/11/16 03:26:13;;;;;;;47.53;19.63;;;6.90;91.80;;;;;;5089823;28;20522;-76
2021/11/16 03:28:41;;;;;;;42.60;19.70;;;6.90;92.00;;;;;;5090124;28;20417;-75
2021/11/16 03:33:55;;;;;;;47.27;19.67;;;6.90;92.00;;;;;;5095155;28;20501;-77
2021/11/16 03:36:22;;;;;;;52.20;18.30;;;6.90;92.10;;;;;;5098804;28;20432;-77
2021/11/16 03:38:49;;;;;;;41.23;17.50;;;6.90;92.00;;;;;;5094850;28;20455;-75
2021/11/16 03:41:15;;;;;;;47.60;19.73;;;6.90;92.00;;;;;;5089359;28;20927;-77
2021/11/16 03:43:42;;;;;;;47.17;18.30;;;6.90;92.10;;;;;;5090750;28;20485;-75
2021/11/16 03:46:08;;;;;;;48.00;18.80;;;7.00;92.00;;;;;;5091128;28;20630;-77
2021/11/16 03:48:34;;;;;;;44.23;20.77;;;7.00;91.90;;;;;;5092491;28;20938;-77
2021/11/16 03:51:01;;;;;;;50.33;19.30;;;7.00;91.80;;;;;;5093311;28;20931;-78
2021/11/16 03:53:28;;;;;;;50.00;19.00;;;7.00;91.70;;;;;;5087618;28;20784;-77
2021/11/16 03:55:54;;;;;;;47.30;18.83;;;6.90;91.80;;;;;;5087188;28;20465;-76
2021/11/16 03:58:22;;;;;;;47.57;19.70;;;6.80;92.10;;;;;;5088374;28;20907;-75
2021/11/16 04:00:53;;;;;;;50.23;21.37;;;6.90;92.30;;;;;;5082959;28;20413;-77
2021/11/16 04:03:22;;;;;;;48.97;19.30;;;6.80;92.10;;;;;;5087778;28;20428;-79
2021/11/16 04:05:48;;;;;;;48.17;19.00;;;6.90;92.00;;;;;;5088269;28;20478;-76
2021/11/16 04:08:13;;;;;;;44.37;18.47;;;6.90;92.10;;;;;;5088415;28;20948;-77
2021/11/16 04:10:39;;;;;;;48.40;19.20;;;7.00;91.80;;;;;;5086767;28;20186;-76
2021/11/16 04:13:05;;;;;;;40.17;16.77;;;6.90;91.80;;;;;;5082485;28;20245;-77
2021/11/16 04:15:32;;;;;;;40.30;17.50;;;6.90;91.90;;;;;;5087809;28;20267;-76
2021/11/16 04:17:59;;;;;;;44.03;19.67;;;7.10;92.00;;;;;;5088624;28;20447;-75
2021/11/16 04:20:32;;;;;;;43.77;18.30;;;7.10;91.80;;;;;;5088911;28;21047;-77
2021/11/16 04:22:59;;;;;;;43.53;18.40;;;7.20;91.50;;;;;;5088257;28;20417;-76
2021/11/16 04:25:26;;;;;;;44.97;17.77;;;7.30;91.20;;;;;;5089281;28;20427;-76
2021/11/16 04:27:53;;;;;;;49.03;19.67;;;7.20;91.20;;;;;;5092504;28;20819;-76
2021/11/16 04:30:22;;;;;;;46.67;17.93;;;7.20;91.10;;;;;;5095539;28;20413;-76
2021/11/16 04:32:48;;;;;;;41.83;19.17;;;7.10;91.30;;;;;;5095825;28;20421;-77
2021/11/16 04:35:15;;;;;;;41.53;17.70;;;7.10;91.50;;;;;;5097324;28;20421;-76
2021/11/16 04:37:44;;;;;;;43.43;17.40;;;7.10;91.60;;;;;;5106709;28;20484;-76
2021/11/16 04:40:12;;;;;;;47.87;19.20;;;7.10;91.70;;;;;;5110040;28;20436;-76
2021/11/16 04:42:39;;;;;;;44.53;17.50;;;7.10;91.80;;;;;;5096686;28;20425;-76
2021/11/16 04:45:08;;;;;;;47.30;18.67;;;7.00;91.80;;;;;;5089717;28;20428;-77
2021/11/16 04:47:46;;;;;;;49.07;18.53;;;7.00;91.90;;;;;;5093861;28;20482;-75
2021/11/16 04:50:21;;;;;;;43.90;18.60;;;7.00;92.00;;;;;;5092560;28;20452;-77
2021/11/16 05:03:52;;;;;;;40.10;16.63;;;7.00;92.00;;;;;;5044020;28;20956;-76
2021/11/16 05:06:18;;;;;;;44.00;18.17;;;7.00;92.00;;;;;;5043813;28;20506;-76
2021/11/16 05:08:46;;;;;;;44.83;17.73;;;7.10;92.00;;;;;;5050018;28;20271;-75
2021/11/16 05:11:12;;;;;;;37.87;16.27;;;7.00;92.10;;;;;;5042912;28;20523;-75
2021/11/16 05:13:43;;;;;;;49.90;19.27;;;7.00;92.40;;;;;;5048791;28;20419;-76
2021/11/16 05:16:12;;;;;;;44.30;18.73;;;7.10;92.10;;;;;;5048561;28;20439;-78
2021/11/16 05:18:42;;;;;;;49.10;18.80;;;7.00;92.00;;;;;;5039471;28;20439;-76
2021/11/16 05:21:08;;;;;;;47.10;18.50;;;6.90;92.00;;;;;;5045510;28;20925;-76
2021/11/16 05:23:42;;;;;;;47.17;18.60;;;6.80;92.30;;;;;;5047727;28;20962;-76
2021/11/16 05:26:08;;;;;;;44.27;18.80;;;6.80;92.60;;;;;;5040219;28;20491;-76
2021/11/16 05:28:35;;;;;;;53.77;19.47;;;6.80;92.70;;;;;;5048130;28;20430;-76
2021/11/16 05:31:00;;;;;;;54.87;19.87;;;6.80;92.60;;;;;;5036205;28;20478;-76
2021/11/16 05:33:27;;;;;;;55.20;21.10;;;6.70;92.70;;;;;;5052545;28;21286;-76
2021/11/16 05:35:58;;;;;;;47.57;18.27;;;6.70;92.80;;;;;;5094015;28;20202;-75
2021/11/16 05:38:27;;;;;;;51.87;19.90;;;6.60;93.00;;;;;;5091652;28;20437;-75
2021/11/16 05:40:53;;;;;;;47.47;18.63;;;6.60;93.30;;;;;;5091804;28;20444;-76
2021/11/16 05:43:19;;;;;;;42.33;17.50;;;6.50;93.50;;;;;;5090433;28;20474;-77
2021/11/16 05:45:45;;;;;;;54.47;20.40;;;6.60;93.60;;;;;;5091262;28;20413;-77
2021/11/16 05:48:12;;;;;;;48.97;19.07;;;6.50;93.60;;;;;;5090321;28;20297;-76
2021/11/16 05:50:38;;;;;;;55.37;19.90;;;6.50;93.70;;;;;;5090206;28;20425;-76
2021/11/16 05:53:06;;;;;;;51.40;19.17;;;6.50;93.80;;;;;;5089811;28;20430;-76
2021/11/16 05:55:32;;;;;;;48.10;18.67;;;6.50;93.70;;;;;;5087090;28;20959;-77
2021/11/16 05:57:58;;;;;;;48.97;20.40;;;6.50;93.90;;;;;;5090197;28;20476;-76
2021/11/16 06:00:24;;;;;;;43.90;18.77;;;6.50;93.80;;;;;;5090224;28;20244;-76
2021/11/16 06:02:52;;;;;;;46.40;19.93;;;6.50;93.70;;;;;;5089555;28;20430;-76
2021/11/16 06:05:18;;;;;;;48.90;19.67;;;6.50;93.80;;;;;;5092821;28;20413;-76
2021/11/16 06:07:44;;;;;;;49.07;17.60;;;6.40;93.80;;;;;;5092795;28;20530;-77
2021/11/16 06:10:10;;;;;;;47.60;19.47;;;6.50;93.90;;;;;;5090389;28;20465;-76
2021/11/16 06:12:36;;;;;;;49.63;19.30;;;6.40;93.80;;;;;;5087955;28;20551;-78
2021/11/16 06:15:04;;;;;;;46.33;18.10;;;6.40;93.70;;;;;;5091461;28;20493;-75
2021/11/16 06:17:30;;;;;;;43.13;16.80;;;6.30;93.60;;;;;;5090267;28;20456;-77
2021/11/16 06:19:56;;;;;;;41.93;16.60;;;6.30;93.70;;;;;;5090056;28;20436;-77
2021/11/16 06:22:22;;;;;;;44.87;18.30;;;6.30;93.80;;;;;;5090508;28;20508;-76
2021/11/16 06:24:48;;;;;;;51.27;19.63;;;6.20;93.90;;;;;;5090224;28;20424;-76
2021/11/16 06:27:14;;;;;;;47.77;18.00;;;6.20;93.90;;;;;;5092180;28;20476;-77
2021/11/16 06:29:39;;;;;;;42.77;16.80;;;6.20;93.90;;;;;;5091802;28;20183;-75
2021/11/16 06:32:08;;;;;;;54.90;18.67;;;6.20;93.80;;;;;;5091143;28;20664;-75
2021/11/16 06:34:35;;;;;;;39.60;16.00;;;6.10;93.90;;;;;;5092492;28;20275;-76
2021/11/16 06:37:01;;;;;;;42.77;16.60;;;6.10;93.90;;;;;;5092644;28;20459;-76
2021/11/16 06:39:27;;;;;;;35.20;14.90;;;6.00;93.80;;;;;;5089285;28;20916;-77
2021/11/16 06:41:55;;;;;;;44.33;16.17;;;6.00;93.80;;;;;;5087816;28;20252;-77
2021/11/16 06:44:21;;;;;;;44.07;16.63;;;6.00;93.80;;;;;;5089177;28;20417;-79
2021/11/16 06:46:49;;;;;;;40.13;15.63;;;6.00;93.80;;;;;;5089377;28;20497;-76
2021/11/16 06:49:17;;;;;;;40.70;16.70;;;6.00;93.90;;;;;;5090260;28;20445;-76
2021/11/16 06:51:45;;;;;;;40.63;16.30;;;6.10;93.80;;;;;;5089749;28;20417;-77
2021/11/16 06:54:14;;;;;;;35.63;15.23;;;6.10;93.50;;;;;;5088304;28;20513;-77
2021/11/16 06:56:41;;;;;;;33.93;15.67;;;6.00;93.30;;;;;;5090050;28;20480;-76
2021/11/16 06:59:08;;;;;;;37.13;15.50;;;6.10;93.40;;;;;;5090179;28;20470;-78
2021/11/16 07:01:37;;;;;;;40.60;15.47;;;6.00;93.30;;;;;;5092913;28;20455;-77
2021/11/16 07:04:09;;;;;;;34.73;14.00;;;6.10;93.30;;;;;;5091054;28;20452;-77
2021/11/16 07:06:40;;;;;;;37.47;17.23;;;6.10;93.20;;;;;;5084366;28;20935;-76
2021/11/16 07:09:08;;;;;;;32.17;13.87;;;6.00;93.10;;;;;;5089232;28;20441;-77
2021/11/16 07:11:50;;;;;;;39.30;16.00;;;6.00;93.30;;;;;;5088270;28;20420;-77
2021/11/16 07:14:18;;;;;;;38.60;14.00;;;6.10;93.20;;;;;;5088281;28;20869;-76
2021/11/16 07:17:01;;;;;;;41.60;14.87;;;6.10;93.40;;;;;;5089472;28;20472;-76
2021/11/16 07:19:55;;;;;;;35.40;14.40;;;6.10;93.40;;;;;;5089986;28;20455;-75
2021/11/16 07:22:23;;;;;;;37.30;14.90;;;6.20;93.30;;;;;;5088239;28;20437;-76
2021/11/16 07:24:53;;;;;;;34.90;14.63;;;6.20;93.00;;;;;;5088667;28;20425;-77
2021/11/16 07:27:31;;;;;;;29.43;13.13;;;6.20;92.80;;;;;;5089725;28;20500;-77
2021/11/16 07:29:57;;;;;;;35.33;14.33;;;6.20;92.60;;;;;;5088577;28;20436;-77
2021/11/16 07:32:29;;;;;;;37.33;14.40;;;6.30;92.40;;;;;;5089137;28;20425;-77
2021/11/16 07:35:01;;;;;;;35.63;13.63;;;6.40;92.10;;;;;;5089071;28;20449;-77
2021/11/16 07:37:31;;;;;;;36.10;13.63;;;6.40;91.90;;;;;;5088997;28;20471;-76
2021/11/16 07:40:01;;;;;;;36.67;14.73;;;6.30;91.70;;;;;;5089180;28;20532;-76
2021/11/16 07:42:31;;;;;;;35.93;14.67;;;6.40;91.70;;;;;;5087245;28;20433;-77
2021/11/16 07:45:12;;;;;;;37.13;14.23;;;6.40;91.60;;;;;;5087230;28;20447;-77
2021/11/16 07:47:48;;;;;;;35.87;15.13;;;6.30;91.60;;;;;;5088908;28;20504;-75
2021/11/16 07:50:21;;;;;;;38.47;15.70;;;6.30;91.70;;;;;;5088450;28;20509;-77
2021/11/16 07:52:48;;;;;;;35.50;14.63;;;6.30;91.70;;;;;;5089332;28;20428;-76
2021/11/16 07:55:27;;;;;;;38.43;14.77;;;6.40;91.70;;;;;;5089209;28;20642;-77
2021/11/16 07:57:54;;;;;;;43.57;15.00;;;6.40;91.60;;;;;;5089929;28;20436;-76
2021/11/16 08:00:26;;;;;;;36.83;14.10;;;6.40;91.60;;;;;;5089856;28;20884;-76
2021/11/16 08:03:02;;;;;;;33.57;14.13;;;6.40;91.40;;;;;;5089204;28;20436;-76
2021/11/16 08:08:53;;;;;;;37.83;14.00;;;6.50;91.10;;;;;;5093351;28;20479;-77
2021/11/16 08:13:52;;;;;;;36.10;13.53;;;6.30;91.30;;;;;;5093282;28;20420;-77
2021/11/16 08:16:19;;;;;;;37.87;15.80;;;6.40;91.40;;;;;;5093551;28;20497;-76
2021/11/16 08:18:55;;;;;;;33.37;14.07;;;6.30;91.50;;;;;;5095415;28;20440;-77
2021/11/16 08:21:21;;;;;;;32.57;14.07;;;6.30;91.70;;;;;;5093949;28;20443;-76
2021/11/16 08:23:53;;;;;;;38.47;15.27;;;6.30;91.70;;;;;;5097638;28;20420;-77
2021/11/16 08:26:20;;;;;;;34.53;14.13;;;6.30;91.70;;;;;;5102436;28;20469;-75
2021/11/16 08:28:48;;;;;;;38.00;15.93;;;6.40;91.40;;;;;;5095471;28;20429;-77
2021/11/16 08:31:15;;;;;;;43.37;15.90;;;6.40;91.30;;;;;;5097759;28;20851;-76
2021/11/16 08:33:42;;;;;;;40.57;15.50;;;6.40;91.40;;;;;;5101958;28;20798;-77
2021/11/16 08:36:08;;;;;;;35.93;14.50;;;6.40;91.40;;;;;;5104783;28;20417;-74
2021/11/16 08:38:41;;;;;;;35.70;15.40;;;6.40;91.50;;;;;;5102872;28;20440;-76
2021/11/16 08:41:07;;;;;;;31.93;13.60;;;6.40;91.50;;;;;;5098948;28;20472;-75
2021/11/16 08:43:38;;;;;;;42.40;16.67;;;6.50;91.20;;;;;;5094585;28;20432;-75
2021/11/16 08:46:07;;;;;;;37.13;15.20;;;6.60;91.10;;;;;;5094882;28;20615;-77
2021/11/16 08:48:38;;;;;;;40.47;15.57;;;6.60;91.00;;;;;;5097947;28;20441;-75
2021/11/16 08:51:08;;;;;;;40.30;15.53;;;6.50;91.00;;;;;;5090298;28;20495;-76
2021/11/16 08:53:37;;;;;;;33.83;14.47;;;6.40;91.20;;;;;;5091875;28;20425;-77
2021/11/16 08:56:07;;;;;;;40.20;14.70;;;6.50;91.50;;;;;;5092729;28;20435;-76
2021/11/16 08:58:33;;;;;;;41.03;15.03;;;6.60;91.00;;;;;;5093563;28;21139;-77
2021/11/16 09:01:03;;;;;;;39.53;15.57;;;6.70;90.90;;;;;;5092922;28;20446;-76
2021/11/16 09:03:32;;;;;;;33.53;14.30;;;6.60;90.90;;;;;;5088471;28;20424;-76
2021/11/16 09:06:01;;;;;;;39.53;14.97;;;6.60;91.00;;;;;;5092610;28;20822;-76
2021/11/16 09:08:32;;;;;;;40.17;16.53;;;6.40;90.90;;;;;;5092063;28;20460;-76
2021/11/16 09:11:02;;;;;;;45.07;14.07;;;6.30;91.30;;;;;;5093196;28;20463;-76
2021/11/16 09:13:31;;;;;;;39.33;13.77;;;6.30;91.60;;;;;;5090176;28;20429;-76
2021/11/16 09:16:04;;;;;;;42.13;14.57;;;6.30;91.60;;;;;;5092578;28;20444;-77
2021/11/16 09:18:44;;;;;;;43.13;15.47;;;6.40;91.60;;;;;;5091993;28;20494;-76
2021/11/16 09:21:14;;;;;;;35.10;13.80;;;6.40;91.50;;;;;;5094445;28;20425;-75
2021/11/16 09:23:50;;;;;;;34.00;13.93;;;6.60;91.30;;;;;;5095576;28;20432;-76
2021/11/16 09:29:02;;;;;;;29.43;11.80;;;6.60;90.90;;;;;;5093837;28;21275;-76
2021/11/16 09:31:40;;;;;;;28.47;11.60;;;6.50;90.60;;;;;;5093361;28;20428;-76
2021/11/16 09:34:17;;;;;;;22.87;9.50;;;6.50;90.60;;;;;;5093927;28;20429;-76
2021/11/16 09:36:58;;;;;;;26.10;10.23;;;6.50;90.60;;;;;;5087628;28;20448;-75
2021/11/16 09:39:49;;;;;;;24.60;9.20;;;6.70;90.10;;;;;;5093951;28;20421;-76
2021/11/16 09:42:27;;;;;;;24.00;9.57;;;6.70;89.50;;;;;;5091425;28;20445;-76
2021/11/16 09:45:08;;;;;;;21.90;9.63;;;6.70;89.60;;;;;;5092662;28;20956;-76
2021/11/16 09:47:37;;;;;;;20.93;10.10;;;6.70;89.50;;;;;;5091819;28;20637;-77
2021/11/16 09:50:09;;;;;;;19.17;8.80;;;6.70;89.20;;;;;;5090491;28;20841;-76
2021/11/16 09:52:43;;;;;;;19.93;8.30;;;6.60;88.90;;;;;;5091840;28;20421;-77
2021/11/16 09:55:16;;;;;;;20.00;8.90;;;6.60;89.30;;;;;;5091944;28;20433;-77
2021/11/16 09:57:56;;;;;;;18.17;8.57;;;6.50;88.90;;;;;;5085472;28;20448;-76
2021/11/16 10:00:27;;;;;;;23.67;8.97;;;6.40;89.20;;;;;;5091736;28;20439;-76
2021/11/16 10:03:07;;;;;;;24.07;8.70;;;6.50;89.50;;;;;;5091808;28;20428;-76
2021/11/16 10:05:40;;;;;;;16.70;7.23;;;6.50;89.30;;;;;;5091147;28;20489;-76
2021/11/16 10:08:07;;;;;;;18.43;8.80;;;6.50;89.20;;;;;;5092040;28;20480;-75
2021/11/16 10:10:36;;;;;;;23.03;9.23;;;6.50;89.00;;;;;;5093732;28;20424;-77
2021/11/16 10:13:11;;;;;;;23.47;8.90;;;6.50;89.20;;;;;;5097325;28;20578;-77
2021/11/16 10:15:47;;;;;;;18.03;8.30;;;6.60;89.20;;;;;;5090517;28;20457;-76
2021/11/16 10:18:15;;;;;;;22.40;7.80;;;6.60;89.20;;;;;;5092132;28;20455;-76
2021/11/16 10:20:43;;;;;;;21.07;8.67;;;6.70;88.90;;;;;;5092332;28;20962;-77
2021/11/16 10:23:11;;;;;;;20.47;7.80;;;6.70;88.70;;;;;;5092825;28;20514;-76
2021/11/16 10:25:43;;;;;;;21.03;8.70;;;6.70;88.90;;;;;;5094544;28;20421;-77
2021/11/16 10:28:14;;;;;;;17.70;7.87;;;6.90;88.70;;;;;;5094004;28;20473;-76
2021/11/16 10:30:41;;;;;;;26.63;9.70;;;7.10;88.00;;;;;;5090786;28;20436;-77
2021/11/16 10:33:16;;;;;;;18.43;8.60;;;7.10;87.40;;;;;;5090477;28;20425;-76
2021/11/16 10:35:50;;;;;;;18.27;7.33;;;7.10;87.10;;;;;;5090346;28;20423;-77
2021/11/16 10:38:38;;;;;;;17.57;7.50;;;7.10;87.00;;;;;;5089848;28;20523;-76
2021/11/16 10:41:26;;;;;;;16.53;7.00;;;6.70;87.70;;;;;;5091311;28;20437;-76
2021/11/16 10:43:55;;;;;;;17.87;7.90;;;6.80;88.10;;;;;;5089303;28;20863;-76
2021/11/16 10:46:23;;;;;;;15.90;7.97;;;6.90;88.00;;;;;;5090802;28;20500;-76
2021/11/16 10:48:55;;;;;;;18.50;7.37;;;6.80;87.60;;;;;;5091440;28;20452;-76
2021/11/16 10:51:25;;;;;;;17.83;6.90;;;6.60;88.30;;;;;;5090750;28;20460;-77
2021/11/16 10:53:53;;;;;;;20.40;7.77;;;6.60;88.90;;;;;;5089476;28;20432;-76
2021/11/16 10:56:28;;;;;;;17.17;7.47;;;6.60;89.00;;;;;;5091176;28;20505;-76
2021/11/16 10:59:01;;;;;;;18.17;7.67;;;6.70;89.00;;;;;;5091568;28;20432;-78
2021/11/16 11:01:26;;;;;;;19.10;7.70;;;6.90;88.90;;;;;;5091072;28;20425;-77
2021/11/16 11:03:55;;;;;;;18.30;7.00;;;7.10;88.10;;;;;;5089783;28;20428;-76
2021/11/16 11:06:35;;;;;;;19.20;8.10;;;6.90;87.80;;;;;;5090823;28;20183;-77
2021/11/16 11:09:06;;;;;;;17.93;8.30;;;6.90;87.70;;;;;;5085185;28;20460;-76
2021/11/16 11:11:46;;;;;;;19.70;7.13;;;6.90;87.80;;;;;;5092513;28;20421;-76
2021/11/16 11:14:31;;;;;;;16.23;6.87;;;7.00;88.10;;;;;;5091885;28;20421;-76
2021/11/16 11:17:10;;;;;;;17.13;8.53;;;7.00;88.10;;;;;;5091198;28;20545;-76
2021/11/16 11:19:38;;;;;;;16.87;7.50;;;7.00;87.30;;;;;;5086059;28;20843;-76
2021/11/16 11:22:28;;;;;;;18.00;7.70;;;7.00;87.80;;;;;;5090697;28;20433;-75
2021/11/16 11:25:06;;;;;;;14.10;7.00;;;7.10;87.40;;;;;;5090808;28;20455;-76
2021/11/16 11:30:26;;;;;;;18.63;7.70;;;7.10;86.90;;;;;;5088556;28;20409;-75
2021/11/16 11:32:54;;;;;;;17.07;7.67;;;7.10;87.40;;;;;;5091833;28;20429;-76
2021/11/16 11:35:23;;;;;;;18.13;7.03;;;7.10;87.30;;;;;;5091938;28;20405;-76
2021/11/16 11:37:55;;;;;;;18.83;8.33;;;7.10;87.30;;;;;;5089756;28;20586;-77
2021/11/16 11:40:39;;;;;;;19.07;7.70;;;7.00;87.30;;;;;;5091470;28;20993;-76
2021/11/16 11:43:20;;;;;;;22.90;8.60;;;7.00;87.70;;;;;;5090643;28;20424;-76
2021/11/16 11:45:47;;;;;;;19.77;8.20;;;7.00;88.10;;;;;;5090660;28;20486;-77
2021/11/16 11:48:19;;;;;;;22.10;7.93;;;7.10;87.70;;;;;;5093173;28;20472;-77
2021/11/16 11:50:49;;;;;;;20.43;7.90;;;7.00;87.70;;;;;;5092239;28;20498;-76
2021/11/16 11:53:16;;;;;;;15.73;6.77;;;7.00;87.70;;;;;;5092958;28;20493;-76
2021/11/16 11:55:48;;;;;;;18.87;7.03;;;7.00;87.30;;;;;;5092517;28;20880;-76
2021/11/16 11:58:16;;;;;;;13.90;6.13;;;7.00;87.40;;;;;;5095226;28;20445;-76
2021/11/16 12:00:45;;;;;;;17.27;7.20;;;7.20;87.40;;;;;;5092689;28;20536;-75
2021/11/16 12:03:12;;;;;;;14.13;6.60;;;7.30;86.80;;;;;;5090519;28;20430;-75
2021/11/16 12:05:41;;;;;;;13.00;6.07;;;7.40;86.20;;;;;;5083430;28;20424;-76
2021/11/16 12:08:09;;;;;;;14.27;6.80;;;7.50;85.70;;;;;;5091980;28;20598;-78
2021/11/16 12:10:37;;;;;;;16.07;7.03;;;7.50;84.70;;;;;;5092996;28;20457;-76
2021/11/16 12:13:04;;;;;;;22.40;7.57;;;7.40;84.60;;;;;;5091006;28;20432;-76
2021/11/16 12:15:49;;;;;;;13.80;6.30;;;7.40;84.60;;;;;;5082346;28;20804;-75
2021/11/16 12:18:16;;;;;;;10.87;6.47;;;7.30;85.00;;;;;;5091293;28;20857;-77
2021/11/16 12:20:49;;;;;;;14.50;5.90;;;7.40;84.90;;;;;;5089312;28;20598;-76
2021/11/16 12:23:39;;;;;;;13.10;5.77;;;7.40;84.70;;;;;;5091182;28;20425;-77
2021/11/16 12:26:10;;;;;;;11.90;4.93;;;7.40;84.90;;;;;;5091092;28;20435;-76
2021/11/16 12:28:37;;;;;;;12.90;5.37;;;7.30;84.70;;;;;;5091906;28;20449;-76
2021/11/16 12:31:04;;;;;;;13.30;5.47;;;7.30;85.20;;;;;;5091356;28;20756;-77
2021/11/16 12:33:48;;;;;;;11.67;5.20;;;7.30;85.00;;;;;;5087399;28;20784;-76
2021/11/16 12:36:17;;;;;;;12.77;6.00;;;7.30;85.30;;;;;;5093955;28;20421;-76
2021/11/16 12:38:48;;;;;;;20.53;6.03;;;7.20;85.00;;;;;;5095464;28;20425;-76
2021/11/16 12:41:35;;;;;;;11.80;5.93;;;7.30;85.30;;;;;;5090234;28;20425;-77
2021/11/16 12:44:09;;;;;;;8.33;4.83;;;7.40;85.50;;;;;;5091177;28;20454;-75
2021/11/16 12:46:39;;;;;;;11.53;5.10;;;7.50;85.00;;;;;;5093179;28;20482;-74
2021/11/16 12:49:08;;;;;;;13.50;6.17;;;7.60;84.60;;;;;;5091533;28;20961;-75
2021/11/16 12:51:52;;;;;;;12.23;6.40;;;7.60;84.60;;;;;;5091266;28;20420;-75
2021/11/16 12:54:23;;;;;;;15.50;6.30;;;7.70;84.60;;;;;;5092313;28;20410;-76
2021/11/16 12:56:50;;;;;;;13.60;5.70;;;7.80;84.30;;;;;;5094154;28;20437;-76
2021/11/16 12:59:20;;;;;;;18.73;6.20;;;7.70;83.70;;;;;;5094186;28;21001;-76
2021/11/16 13:01:47;;;;;;;12.03;5.70;;;7.80;83.80;;;;;;5094535;28;20417;-76
2021/11/16 13:04:16;;;;;;;13.97;5.70;;;7.80;83.70;;;;;;5093552;28;20424;-77
2021/11/16 13:06:44;;;;;;;13.73;6.50;;;7.80;83.70;;;;;;5093134;28;20819;-76
2021/11/16 13:09:31;;;;;;;15.43;7.00;;;7.90;83.30;;;;;;5092429;28;20466;-76
2021/11/16 13:11:57;;;;;;;10.57;5.90;;;7.80;83.30;;;;;;5066788;28;20498;-76
2021/11/16 13:14:38;;;;;;;13.87;6.60;;;7.90;83.60;;;;;;5090391;28;20417;-76
2021/11/16 13:17:41;;;;;;;12.20;6.33;;;7.50;84.00;;;;;;5091907;28;20293;-78
2021/11/16 13:20:13;;;;;;;13.90;5.70;;;7.40;84.90;;;;;;5092433;28;20429;-77